sensor_id;sensor_type;location;lat;lon;timestamp;P1;durP1;ratioP1;P2;durP2;ratioP2
51304;SDS011;37392;50.964;6.952;2022-11-20T00:01:21;32.95;;;16.35;;
51304;SDS011;37392;50.964;6.952;2022-11-20T00:03:51;34.03;;;15.52;;
51304;SDS011;37392;50.964;6.952;2022-11-20T00:06:20;30.45;;;16.20;;
51304;SDS011;37392;50.964;6.952;2022-11-20T00:08:47;33.97;;;16.50;;
51304;SDS011;37392;50.964;6.952;2022-11-20T00:11:14;31.95;;;17.17;;
51304;SDS011;37392;50.964;6.952;2022-11-20T00:13:46;27.38;;;15.50;;
51304;SDS011;37392;50.964;6.952;2022-11-20T00:16:14;31.42;;;16.45;;
51304;SDS011;37392;50.964;6.952;2022-11-20T00:18:43;32.20;;;16.40;;
51304;SDS011;37392;50.964;6.952;2022-11-20T00:23:45;28.60;;;17.35;;
51304;SDS011;37392;50.964;6.952;2022-11-20T00:26:12;30.77;;;16.15;;
51304;SDS011;37392;50.964;6.952;2022-11-20T00:28:41;30.13;;;17.25;;
51304;SDS011;37392;50.964;6.952;2022-11-20T00:31:09;26.42;;;15.93;;
51304;SDS011;37392;50.964;6.952;2022-11-20T00:33:37;31.15;;;16.58;;
51304;SDS011;37392;50.964;6.952;2022-11-20T00:36:04;34.33;;;17.85;;
51304;SDS011;37392;50.964;6.952;2022-11-20T00:38:32;33.03;;;16.23;;
51304;SDS011;37392;50.964;6.952;2022-11-20T00:40:59;31.85;;;17.45;;
51304;SDS011;37392;50.964;6.952;2022-11-20T00:43:31;31.45;;;17.50;;
51304;SDS011;37392;50.964;6.952;2022-11-20T00:45:58;31.00;;;16.67;;
51304;SDS011;37392;50.964;6.952;2022-11-20T00:48:25;26.52;;;16.00;;
51304;SDS011;37392;50.964;6.952;2022-11-20T00:50:51;33.22;;;16.35;;
51304;SDS011;37392;50.964;6.952;2022-11-20T00:53:18;28.73;;;15.45;;
51304;SDS011;37392;50.964;6.952;2022-11-20T00:55:51;29.45;;;17.27;;
51304;SDS011;37392;50.964;6.952;2022-11-20T00:58:29;30.23;;;16.58;;
51304;SDS011;37392;50.964;6.952;2022-11-20T01:01:01;26.35;;;15.13;;
51304;SDS011;37392;50.964;6.952;2022-11-20T01:03:32;31.00;;;16.92;;
51304;SDS011;37392;50.964;6.952;2022-11-20T01:06:09;27.65;;;15.80;;
51304;SDS011;37392;50.964;6.952;2022-11-20T01:08:37;28.83;;;15.70;;
51304;SDS011;37392;50.964;6.952;2022-11-20T01:11:07;31.13;;;15.40;;
51304;SDS011;37392;50.964;6.952;2022-11-20T01:13:36;26.50;;;15.10;;
51304;SDS011;37392;50.964;6.952;2022-11-20T01:16:06;28.33;;;16.08;;
51304;SDS011;37392;50.964;6.952;2022-11-20T01:18:34;33.22;;;17.23;;
51304;SDS011;37392;50.964;6.952;2022-11-20T01:21:02;31.63;;;15.75;;
51304;SDS011;37392;50.964;6.952;2022-11-20T01:23:38;27.40;;;15.70;;
51304;SDS011;37392;50.964;6.952;2022-11-20T01:26:09;29.45;;;15.63;;
51304;SDS011;37392;50.964;6.952;2022-11-20T01:28:38;27.25;;;16.20;;
51304;SDS011;37392;50.964;6.952;2022-11-20T01:31:21;29.92;;;16.67;;
51304;SDS011;37392;50.964;6.952;2022-11-20T01:33:52;28.00;;;15.65;;
51304;SDS011;37392;50.964;6.952;2022-11-20T01:36:21;33.65;;;16.42;;
51304;SDS011;37392;50.964;6.952;2022-11-20T01:38:50;29.00;;;16.73;;
51304;SDS011;37392;50.964;6.952;2022-11-20T01:41:18;31.65;;;17.98;;
51304;SDS011;37392;50.964;6.952;2022-11-20T01:44:03;29.95;;;16.05;;
51304;SDS011;37392;50.964;6.952;2022-11-20T01:46:31;28.48;;;16.05;;
51304;SDS011;37392;50.964;6.952;2022-11-20T01:51:42;29.60;;;15.05;;
51304;SDS011;37392;50.964;6.952;2022-11-20T01:54:13;27.10;;;16.08;;
51304;SDS011;37392;50.964;6.952;2022-11-20T01:56:44;35.50;;;17.92;;
51304;SDS011;37392;50.964;6.952;2022-11-20T01:59:11;26.27;;;14.60;;
51304;SDS011;37392;50.964;6.952;2022-11-20T02:01:41;35.90;;;17.20;;
51304;SDS011;37392;50.964;6.952;2022-11-20T02:04:07;28.95;;;15.68;;
51304;SDS011;37392;50.964;6.952;2022-11-20T02:06:39;25.85;;;14.73;;
51304;SDS011;37392;50.964;6.952;2022-11-20T02:09:10;28.38;;;14.45;;
51304;SDS011;37392;50.964;6.952;2022-11-20T02:11:36;30.48;;;17.23;;
51304;SDS011;37392;50.964;6.952;2022-11-20T02:14:02;29.27;;;16.55;;
51304;SDS011;37392;50.964;6.952;2022-11-20T02:16:29;28.70;;;16.25;;
51304;SDS011;37392;50.964;6.952;2022-11-20T02:19:02;33.42;;;16.90;;
51304;SDS011;37392;50.964;6.952;2022-11-20T02:24:21;33.63;;;16.50;;
51304;SDS011;37392;50.964;6.952;2022-11-20T02:26:56;26.45;;;15.82;;
51304;SDS011;37392;50.964;6.952;2022-11-20T02:29:27;31.40;;;17.60;;
51304;SDS011;37392;50.964;6.952;2022-11-20T02:32:03;28.77;;;15.50;;
51304;SDS011;37392;50.964;6.952;2022-11-20T02:34:28;31.92;;;16.77;;
51304;SDS011;37392;50.964;6.952;2022-11-20T02:36:54;31.20;;;16.88;;
51304;SDS011;37392;50.964;6.952;2022-11-20T02:39:21;33.50;;;17.65;;
51304;SDS011;37392;50.964;6.952;2022-11-20T02:41:50;29.38;;;16.50;;
51304;SDS011;37392;50.964;6.952;2022-11-20T02:44:18;26.17;;;15.63;;
51304;SDS011;37392;50.964;6.952;2022-11-20T02:46:45;25.08;;;15.88;;
51304;SDS011;37392;50.964;6.952;2022-11-20T02:49:10;31.75;;;16.08;;
51304;SDS011;37392;50.964;6.952;2022-11-20T02:51:37;29.40;;;17.35;;
51304;SDS011;37392;50.964;6.952;2022-11-20T02:54:02;28.63;;;15.48;;
51304;SDS011;37392;50.964;6.952;2022-11-20T02:56:28;33.95;;;16.98;;
51304;SDS011;37392;50.964;6.952;2022-11-20T02:58:54;28.08;;;16.60;;
51304;SDS011;37392;50.964;6.952;2022-11-20T03:01:20;29.50;;;16.52;;
51304;SDS011;37392;50.964;6.952;2022-11-20T03:03:46;26.50;;;15.20;;
51304;SDS011;37392;50.964;6.952;2022-11-20T03:06:13;27.48;;;15.73;;
51304;SDS011;37392;50.964;6.952;2022-11-20T03:08:42;25.38;;;14.88;;
51304;SDS011;37392;50.964;6.952;2022-11-20T03:11:08;28.85;;;15.80;;
51304;SDS011;37392;50.964;6.952;2022-11-20T03:13:34;29.90;;;16.25;;
51304;SDS011;37392;50.964;6.952;2022-11-20T03:16:07;29.08;;;15.80;;
51304;SDS011;37392;50.964;6.952;2022-11-20T03:18:36;28.42;;;14.38;;
51304;SDS011;37392;50.964;6.952;2022-11-20T03:21:02;32.60;;;15.75;;
51304;SDS011;37392;50.964;6.952;2022-11-20T03:23:29;26.85;;;15.05;;
51304;SDS011;37392;50.964;6.952;2022-11-20T03:26:06;29.55;;;16.05;;
51304;SDS011;37392;50.964;6.952;2022-11-20T03:31:10;24.67;;;14.65;;
51304;SDS011;37392;50.964;6.952;2022-11-20T03:33:39;29.60;;;16.17;;
51304;SDS011;37392;50.964;6.952;2022-11-20T03:36:07;31.60;;;17.50;;
51304;SDS011;37392;50.964;6.952;2022-11-20T03:38:36;42.70;;;16.00;;
51304;SDS011;37392;50.964;6.952;2022-11-20T03:41:03;30.27;;;16.45;;
51304;SDS011;37392;50.964;6.952;2022-11-20T03:43:34;29.33;;;14.95;;
51304;SDS011;37392;50.964;6.952;2022-11-20T03:46:01;26.45;;;14.32;;
51304;SDS011;37392;50.964;6.952;2022-11-20T03:48:27;28.15;;;15.65;;
51304;SDS011;37392;50.964;6.952;2022-11-20T03:50:53;29.42;;;16.45;;
51304;SDS011;37392;50.964;6.952;2022-11-20T03:53:52;30.63;;;16.48;;
51304;SDS011;37392;50.964;6.952;2022-11-20T03:56:24;27.05;;;16.23;;
51304;SDS011;37392;50.964;6.952;2022-11-20T03:58:55;29.00;;;15.93;;
51304;SDS011;37392;50.964;6.952;2022-11-20T04:01:25;29.48;;;16.13;;
51304;SDS011;37392;50.964;6.952;2022-11-20T04:04:00;31.75;;;17.30;;
51304;SDS011;37392;50.964;6.952;2022-11-20T04:06:27;32.50;;;18.23;;
51304;SDS011;37392;50.964;6.952;2022-11-20T04:08:55;36.30;;;17.38;;
51304;SDS011;37392;50.964;6.952;2022-11-20T04:11:23;31.15;;;17.73;;
51304;SDS011;37392;50.964;6.952;2022-11-20T04:13:53;35.60;;;19.55;;
51304;SDS011;37392;50.964;6.952;2022-11-20T04:16:21;30.98;;;18.33;;
51304;SDS011;37392;50.964;6.952;2022-11-20T04:18:54;33.35;;;16.95;;
51304;SDS011;37392;50.964;6.952;2022-11-20T04:21:22;28.23;;;15.93;;
51304;SDS011;37392;50.964;6.952;2022-11-20T04:23:49;28.05;;;15.93;;
51304;SDS011;37392;50.964;6.952;2022-11-20T04:26:16;34.38;;;17.73;;
51304;SDS011;37392;50.964;6.952;2022-11-20T04:28:42;30.52;;;16.88;;
51304;SDS011;37392;50.964;6.952;2022-11-20T04:31:11;35.15;;;17.35;;
51304;SDS011;37392;50.964;6.952;2022-11-20T04:33:42;41.92;;;19.33;;
51304;SDS011;37392;50.964;6.952;2022-11-20T04:36:18;32.72;;;17.15;;
51304;SDS011;37392;50.964;6.952;2022-11-20T04:41:21;25.23;;;13.13;;
51304;SDS011;37392;50.964;6.952;2022-11-20T04:43:49;47.67;;;19.40;;
51304;SDS011;37392;50.964;6.952;2022-11-20T04:46:17;32.22;;;18.17;;
51304;SDS011;37392;50.964;6.952;2022-11-20T04:48:43;30.42;;;17.83;;
51304;SDS011;37392;50.964;6.952;2022-11-20T04:51:09;30.58;;;17.45;;
51304;SDS011;37392;50.964;6.952;2022-11-20T04:53:35;31.83;;;17.35;;
51304;SDS011;37392;50.964;6.952;2022-11-20T04:56:10;31.77;;;16.35;;
51304;SDS011;37392;50.964;6.952;2022-11-20T04:58:37;30.02;;;17.38;;
51304;SDS011;37392;50.964;6.952;2022-11-20T05:01:07;32.53;;;17.95;;
51304;SDS011;37392;50.964;6.952;2022-11-20T05:03:43;31.23;;;15.65;;
51304;SDS011;37392;50.964;6.952;2022-11-20T05:06:10;37.53;;;17.27;;
51304;SDS011;37392;50.964;6.952;2022-11-20T05:08:38;33.65;;;17.75;;
51304;SDS011;37392;50.964;6.952;2022-11-20T05:11:06;33.05;;;17.17;;
51304;SDS011;37392;50.964;6.952;2022-11-20T05:13:35;32.72;;;18.20;;
51304;SDS011;37392;50.964;6.952;2022-11-20T05:16:04;32.90;;;18.30;;
51304;SDS011;37392;50.964;6.952;2022-11-20T05:18:36;34.65;;;18.77;;
51304;SDS011;37392;50.964;6.952;2022-11-20T05:21:03;34.72;;;18.90;;
51304;SDS011;37392;50.964;6.952;2022-11-20T05:23:29;29.42;;;15.63;;
51304;SDS011;37392;50.964;6.952;2022-11-20T05:25:57;34.10;;;18.00;;
51304;SDS011;37392;50.964;6.952;2022-11-20T05:28:24;31.95;;;17.80;;
51304;SDS011;37392;50.964;6.952;2022-11-20T05:30:50;37.83;;;17.98;;
51304;SDS011;37392;50.964;6.952;2022-11-20T05:33:16;31.65;;;16.38;;
51304;SDS011;37392;50.964;6.952;2022-11-20T05:35:42;33.15;;;16.75;;
51304;SDS011;37392;50.964;6.952;2022-11-20T05:38:08;30.15;;;16.50;;
51304;SDS011;37392;50.964;6.952;2022-11-20T05:40:34;29.30;;;17.88;;
51304;SDS011;37392;50.964;6.952;2022-11-20T05:43:00;31.25;;;16.92;;
51304;SDS011;37392;50.964;6.952;2022-11-20T05:45:26;32.38;;;17.80;;
51304;SDS011;37392;50.964;6.952;2022-11-20T05:47:51;30.80;;;17.45;;
51304;SDS011;37392;50.964;6.952;2022-11-20T05:50:17;29.70;;;16.05;;
51304;SDS011;37392;50.964;6.952;2022-11-20T05:52:43;42.85;;;21.75;;
51304;SDS011;37392;50.964;6.952;2022-11-20T05:55:08;32.08;;;17.00;;
51304;SDS011;37392;50.964;6.952;2022-11-20T05:57:34;34.90;;;18.42;;
51304;SDS011;37392;50.964;6.952;2022-11-20T06:00:00;37.65;;;19.60;;
51304;SDS011;37392;50.964;6.952;2022-11-20T06:02:26;34.40;;;18.17;;
51304;SDS011;37392;50.964;6.952;2022-11-20T06:04:51;29.17;;;18.00;;
51304;SDS011;37392;50.964;6.952;2022-11-20T06:07:17;35.38;;;19.40;;
51304;SDS011;37392;50.964;6.952;2022-11-20T06:09:42;27.95;;;16.23;;
51304;SDS011;37392;50.964;6.952;2022-11-20T06:12:08;34.83;;;18.17;;
51304;SDS011;37392;50.964;6.952;2022-11-20T06:14:33;40.15;;;19.40;;
51304;SDS011;37392;50.964;6.952;2022-11-20T06:16:59;30.85;;;18.42;;
51304;SDS011;37392;50.964;6.952;2022-11-20T06:19:25;36.42;;;19.08;;
51304;SDS011;37392;50.964;6.952;2022-11-20T06:21:51;36.05;;;19.13;;
51304;SDS011;37392;50.964;6.952;2022-11-20T06:24:16;39.42;;;20.45;;
51304;SDS011;37392;50.964;6.952;2022-11-20T06:26:42;38.03;;;21.17;;
51304;SDS011;37392;50.964;6.952;2022-11-20T06:29:09;36.33;;;20.48;;
51304;SDS011;37392;50.964;6.952;2022-11-20T06:31:35;38.60;;;20.85;;
51304;SDS011;37392;50.964;6.952;2022-11-20T06:34:03;41.92;;;20.92;;
51304;SDS011;37392;50.964;6.952;2022-11-20T06:36:31;46.47;;;19.88;;
51304;SDS011;37392;50.964;6.952;2022-11-20T06:38:57;38.72;;;20.25;;
51304;SDS011;37392;50.964;6.952;2022-11-20T06:41:22;39.92;;;20.27;;
51304;SDS011;37392;50.964;6.952;2022-11-20T06:43:48;39.00;;;19.80;;
51304;SDS011;37392;50.964;6.952;2022-11-20T06:46:14;36.28;;;18.92;;
51304;SDS011;37392;50.964;6.952;2022-11-20T06:48:44;35.08;;;18.38;;
51304;SDS011;37392;50.964;6.952;2022-11-20T06:51:10;34.38;;;17.35;;
51304;SDS011;37392;50.964;6.952;2022-11-20T06:53:36;42.45;;;21.00;;
51304;SDS011;37392;50.964;6.952;2022-11-20T06:56:02;37.67;;;19.92;;
51304;SDS011;37392;50.964;6.952;2022-11-20T06:58:29;36.17;;;18.10;;
51304;SDS011;37392;50.964;6.952;2022-11-20T07:01:04;37.30;;;18.02;;
51304;SDS011;37392;50.964;6.952;2022-11-20T07:03:38;40.67;;;20.25;;
51304;SDS011;37392;50.964;6.952;2022-11-20T07:06:05;37.13;;;20.40;;
51304;SDS011;37392;50.964;6.952;2022-11-20T07:08:31;37.15;;;19.45;;
51304;SDS011;37392;50.964;6.952;2022-11-20T07:10:58;44.38;;;22.20;;
51304;SDS011;37392;50.964;6.952;2022-11-20T07:13:30;37.65;;;20.35;;
51304;SDS011;37392;50.964;6.952;2022-11-20T07:16:03;40.92;;;20.95;;
51304;SDS011;37392;50.964;6.952;2022-11-20T07:18:31;40.55;;;20.15;;
51304;SDS011;37392;50.964;6.952;2022-11-20T07:21:04;35.85;;;19.00;;
51304;SDS011;37392;50.964;6.952;2022-11-20T07:23:33;37.67;;;20.50;;
51304;SDS011;37392;50.964;6.952;2022-11-20T07:26:02;41.53;;;20.83;;
51304;SDS011;37392;50.964;6.952;2022-11-20T07:28:33;34.90;;;18.38;;
51304;SDS011;37392;50.964;6.952;2022-11-20T07:30:59;37.40;;;20.48;;
51304;SDS011;37392;50.964;6.952;2022-11-20T07:33:24;39.15;;;21.70;;
51304;SDS011;37392;50.964;6.952;2022-11-20T07:35:50;42.17;;;20.85;;
51304;SDS011;37392;50.964;6.952;2022-11-20T07:38:15;34.35;;;18.60;;
51304;SDS011;37392;50.964;6.952;2022-11-20T07:40:41;36.75;;;19.05;;
51304;SDS011;37392;50.964;6.952;2022-11-20T07:43:07;37.60;;;18.60;;
51304;SDS011;37392;50.964;6.952;2022-11-20T07:45:32;33.17;;;18.23;;
51304;SDS011;37392;50.964;6.952;2022-11-20T07:47:58;41.80;;;18.75;;
51304;SDS011;37392;50.964;6.952;2022-11-20T07:50:23;38.78;;;19.85;;
51304;SDS011;37392;50.964;6.952;2022-11-20T07:52:49;38.03;;;19.25;;
51304;SDS011;37392;50.964;6.952;2022-11-20T07:55:15;40.30;;;20.25;;
51304;SDS011;37392;50.964;6.952;2022-11-20T07:57:41;35.05;;;18.70;;
51304;SDS011;37392;50.964;6.952;2022-11-20T08:00:08;38.20;;;19.65;;
51304;SDS011;37392;50.964;6.952;2022-11-20T08:02:37;38.10;;;20.30;;
51304;SDS011;37392;50.964;6.952;2022-11-20T08:05:06;36.88;;;19.60;;
51304;SDS011;37392;50.964;6.952;2022-11-20T08:07:40;43.45;;;21.90;;
51304;SDS011;37392;50.964;6.952;2022-11-20T08:10:09;36.60;;;19.98;;
51304;SDS011;37392;50.964;6.952;2022-11-20T08:12:43;43.70;;;21.00;;
51304;SDS011;37392;50.964;6.952;2022-11-20T08:15:32;38.17;;;20.10;;
51304;SDS011;37392;50.964;6.952;2022-11-20T08:18:30;39.15;;;19.48;;
51304;SDS011;37392;50.964;6.952;2022-11-20T08:20:49;34.53;;;18.83;;
51304;SDS011;37392;50.964;6.952;2022-11-20T08:23:15;28.95;;;16.55;;
51304;SDS011;37392;50.964;6.952;2022-11-20T08:25:40;34.65;;;18.05;;
51304;SDS011;37392;50.964;6.952;2022-11-20T08:28:07;31.15;;;17.25;;
51304;SDS011;37392;50.964;6.952;2022-11-20T08:30:34;34.55;;;18.13;;
51304;SDS011;37392;50.964;6.952;2022-11-20T08:33:02;55.42;;;26.17;;
51304;SDS011;37392;50.964;6.952;2022-11-20T08:35:34;36.25;;;19.38;;
51304;SDS011;37392;50.964;6.952;2022-11-20T08:38:01;27.70;;;15.15;;
51304;SDS011;37392;50.964;6.952;2022-11-20T08:40:29;32.55;;;16.52;;
51304;SDS011;37392;50.964;6.952;2022-11-20T08:42:55;33.13;;;15.55;;
51304;SDS011;37392;50.964;6.952;2022-11-20T08:45:21;25.95;;;13.05;;
51304;SDS011;37392;50.964;6.952;2022-11-20T08:47:47;25.25;;;14.05;;
51304;SDS011;37392;50.964;6.952;2022-11-20T08:50:14;26.55;;;13.50;;
51304;SDS011;37392;50.964;6.952;2022-11-20T08:52:40;24.63;;;12.65;;
51304;SDS011;37392;50.964;6.952;2022-11-20T08:55:06;26.73;;;15.25;;
51304;SDS011;37392;50.964;6.952;2022-11-20T08:57:34;30.45;;;17.50;;
51304;SDS011;37392;50.964;6.952;2022-11-20T09:00:01;31.48;;;17.98;;
51304;SDS011;37392;50.964;6.952;2022-11-20T09:02:27;33.22;;;17.77;;
51304;SDS011;37392;50.964;6.952;2022-11-20T09:04:53;30.90;;;17.55;;
51304;SDS011;37392;50.964;6.952;2022-11-20T09:07:19;32.25;;;17.60;;
51304;SDS011;37392;50.964;6.952;2022-11-20T09:09:45;32.38;;;17.48;;
51304;SDS011;37392;50.964;6.952;2022-11-20T09:12:10;37.50;;;18.92;;
51304;SDS011;37392;50.964;6.952;2022-11-20T09:14:36;33.22;;;19.17;;
51304;SDS011;37392;50.964;6.952;2022-11-20T09:17:02;33.85;;;18.63;;
51304;SDS011;37392;50.964;6.952;2022-11-20T09:19:27;33.00;;;18.65;;
51304;SDS011;37392;50.964;6.952;2022-11-20T09:21:53;36.55;;;19.52;;
51304;SDS011;37392;50.964;6.952;2022-11-20T09:24:18;31.85;;;18.77;;
51304;SDS011;37392;50.964;6.952;2022-11-20T09:26:46;37.40;;;18.98;;
51304;SDS011;37392;50.964;6.952;2022-11-20T09:29:11;43.45;;;21.00;;
51304;SDS011;37392;50.964;6.952;2022-11-20T09:31:37;38.03;;;19.65;;
51304;SDS011;37392;50.964;6.952;2022-11-20T09:34:02;41.13;;;20.20;;
51304;SDS011;37392;50.964;6.952;2022-11-20T09:36:28;36.08;;;21.40;;
51304;SDS011;37392;50.964;6.952;2022-11-20T09:38:54;35.58;;;20.05;;
51304;SDS011;37392;50.964;6.952;2022-11-20T09:46:53;34.08;;;19.00;;
51304;SDS011;37392;50.964;6.952;2022-11-20T09:55:11;42.58;;;20.65;;
51304;SDS011;37392;50.964;6.952;2022-11-20T09:57:42;39.33;;;20.88;;
51304;SDS011;37392;50.964;6.952;2022-11-20T10:00:12;37.83;;;20.88;;
51304;SDS011;37392;50.964;6.952;2022-11-20T10:02:44;34.60;;;20.13;;
51304;SDS011;37392;50.964;6.952;2022-11-20T10:05:18;39.63;;;18.92;;
51304;SDS011;37392;50.964;6.952;2022-11-20T10:07:52;38.75;;;19.65;;
51304;SDS011;37392;50.964;6.952;2022-11-20T10:10:44;41.00;;;19.65;;
51304;SDS011;37392;50.964;6.952;2022-11-20T10:19:15;34.95;;;20.30;;
51304;SDS011;37392;50.964;6.952;2022-11-20T10:21:56;34.70;;;18.83;;
51304;SDS011;37392;50.964;6.952;2022-11-20T10:30:18;33.60;;;18.60;;
51304;SDS011;37392;50.964;6.952;2022-11-20T10:32:49;38.20;;;19.50;;
51304;SDS011;37392;50.964;6.952;2022-11-20T10:38:15;38.65;;;20.00;;
51304;SDS011;37392;50.964;6.952;2022-11-20T10:40:51;39.10;;;20.52;;
51304;SDS011;37392;50.964;6.952;2022-11-20T10:43:42;42.63;;;22.00;;
51304;SDS011;37392;50.964;6.952;2022-11-20T10:46:10;39.95;;;21.38;;
51304;SDS011;37392;50.964;6.952;2022-11-20T10:48:42;40.83;;;22.05;;
51304;SDS011;37392;50.964;6.952;2022-11-20T11:00:23;41.20;;;22.00;;
51304;SDS011;37392;50.964;6.952;2022-11-20T11:02:53;48.28;;;24.73;;
51304;SDS011;37392;50.964;6.952;2022-11-20T11:07:45;50.25;;;24.77;;
51304;SDS011;37392;50.964;6.952;2022-11-20T11:10:18;46.47;;;24.60;;
51304;SDS011;37392;50.964;6.952;2022-11-20T11:12:49;41.70;;;23.27;;
51304;SDS011;37392;50.964;6.952;2022-11-20T11:15:25;41.22;;;22.92;;
51304;SDS011;37392;50.964;6.952;2022-11-20T11:17:55;37.60;;;20.73;;
51304;SDS011;37392;50.964;6.952;2022-11-20T11:20:22;44.30;;;24.05;;
51304;SDS011;37392;50.964;6.952;2022-11-20T11:22:51;41.92;;;20.90;;
51304;SDS011;37392;50.964;6.952;2022-11-20T11:25:24;43.80;;;21.92;;
51304;SDS011;37392;50.964;6.952;2022-11-20T11:27:52;42.22;;;20.33;;
51304;SDS011;37392;50.964;6.952;2022-11-20T11:30:42;41.30;;;23.33;;
51304;SDS011;37392;50.964;6.952;2022-11-20T11:33:34;42.78;;;23.80;;
51304;SDS011;37392;50.964;6.952;2022-11-20T11:37:00;35.58;;;19.38;;
51304;SDS011;37392;50.964;6.952;2022-11-20T11:40:36;41.90;;;22.77;;
51304;SDS011;37392;50.964;6.952;2022-11-20T11:43:48;36.45;;;20.73;;
51304;SDS011;37392;50.964;6.952;2022-11-20T11:53:29;42.05;;;23.23;;
51304;SDS011;37392;50.964;6.952;2022-11-20T11:56:45;40.10;;;22.05;;
51304;SDS011;37392;50.964;6.952;2022-11-20T12:07:47;45.40;;;22.90;;
51304;SDS011;37392;50.964;6.952;2022-11-20T12:17:30;45.85;;;21.92;;
51304;SDS011;37392;50.964;6.952;2022-11-20T12:20:34;42.10;;;20.92;;
51304;SDS011;37392;50.964;6.952;2022-11-20T12:23:24;41.72;;;21.88;;
51304;SDS011;37392;50.964;6.952;2022-11-20T12:26:43;43.83;;;22.88;;
51304;SDS011;37392;50.964;6.952;2022-11-20T12:40:45;41.05;;;22.92;;
51304;SDS011;37392;50.964;6.952;2022-11-20T12:47:15;44.00;;;21.58;;
51304;SDS011;37392;50.964;6.952;2022-11-20T12:49:58;50.80;;;23.80;;
51304;SDS011;37392;50.964;6.952;2022-11-20T12:52:53;49.95;;;23.05;;
51304;SDS011;37392;50.964;6.952;2022-11-20T12:58:12;46.53;;;23.92;;
51304;SDS011;37392;50.964;6.952;2022-11-20T13:07:02;42.38;;;20.42;;
51304;SDS011;37392;50.964;6.952;2022-11-20T13:09:32;43.05;;;21.20;;
51304;SDS011;37392;50.964;6.952;2022-11-20T13:12:36;43.90;;;23.20;;
51304;SDS011;37392;50.964;6.952;2022-11-20T13:17:58;42.30;;;20.85;;
51304;SDS011;37392;50.964;6.952;2022-11-20T13:20:26;40.95;;;20.17;;
51304;SDS011;37392;50.964;6.952;2022-11-20T13:23:11;42.40;;;22.17;;
51304;SDS011;37392;50.964;6.952;2022-11-20T13:25:49;41.05;;;19.17;;
51304;SDS011;37392;50.964;6.952;2022-11-20T13:30:50;42.33;;;20.08;;
51304;SDS011;37392;50.964;6.952;2022-11-20T13:36:23;39.47;;;22.33;;
51304;SDS011;37392;50.964;6.952;2022-11-20T13:38:52;43.17;;;21.35;;
51304;SDS011;37392;50.964;6.952;2022-11-20T13:46:40;38.42;;;20.40;;
51304;SDS011;37392;50.964;6.952;2022-11-20T13:49:31;44.22;;;21.77;;
51304;SDS011;37392;50.964;6.952;2022-11-20T13:55:38;42.80;;;21.98;;
51304;SDS011;37392;50.964;6.952;2022-11-20T14:01:26;38.10;;;21.48;;
51304;SDS011;37392;50.964;6.952;2022-11-20T14:03:59;48.80;;;22.67;;
51304;SDS011;37392;50.964;6.952;2022-11-20T14:06:43;48.50;;;24.33;;
51304;SDS011;37392;50.964;6.952;2022-11-20T14:09:12;77.57;;;35.08;;
51304;SDS011;37392;50.964;6.952;2022-11-20T14:11:59;78.97;;;34.78;;
51304;SDS011;37392;50.964;6.952;2022-11-20T14:14:28;46.35;;;22.92;;
51304;SDS011;37392;50.964;6.952;2022-11-20T14:17:09;41.88;;;22.42;;
51304;SDS011;37392;50.964;6.952;2022-11-20T14:19:51;46.53;;;21.10;;
51304;SDS011;37392;50.964;6.952;2022-11-20T14:23:02;52.08;;;25.85;;
51304;SDS011;37392;50.964;6.952;2022-11-20T14:26:14;44.63;;;23.60;;
51304;SDS011;37392;50.964;6.952;2022-11-20T14:31:46;51.08;;;24.25;;
51304;SDS011;37392;50.964;6.952;2022-11-20T14:34:24;45.30;;;22.02;;
51304;SDS011;37392;50.964;6.952;2022-11-20T14:36:57;55.08;;;24.88;;
51304;SDS011;37392;50.964;6.952;2022-11-20T14:39:30;41.00;;;20.92;;
51304;SDS011;37392;50.964;6.952;2022-11-20T14:41:59;38.53;;;18.83;;
51304;SDS011;37392;50.964;6.952;2022-11-20T14:44:27;44.35;;;21.88;;
51304;SDS011;37392;50.964;6.952;2022-11-20T14:46:57;43.63;;;21.08;;
51304;SDS011;37392;50.964;6.952;2022-11-20T14:49:25;40.10;;;20.73;;
51304;SDS011;37392;50.964;6.952;2022-11-20T14:51:58;40.78;;;20.60;;
51304;SDS011;37392;50.964;6.952;2022-11-20T14:54:50;63.92;;;28.08;;
51304;SDS011;37392;50.964;6.952;2022-11-20T14:57:30;54.08;;;25.05;;
51304;SDS011;37392;50.964;6.952;2022-11-20T15:02:33;36.08;;;19.25;;
51304;SDS011;37392;50.964;6.952;2022-11-20T15:05:00;37.00;;;18.50;;
51304;SDS011;37392;50.964;6.952;2022-11-20T15:07:32;46.53;;;20.70;;
51304;SDS011;37392;50.964;6.952;2022-11-20T15:13:00;44.42;;;21.45;;
51304;SDS011;37392;50.964;6.952;2022-11-20T15:15:44;45.38;;;19.95;;
51304;SDS011;37392;50.964;6.952;2022-11-20T15:18:16;49.30;;;23.08;;
51304;SDS011;37392;50.964;6.952;2022-11-20T15:20:49;42.80;;;21.92;;
51304;SDS011;37392;50.964;6.952;2022-11-20T15:23:17;44.63;;;22.27;;
51304;SDS011;37392;50.964;6.952;2022-11-20T15:25:43;51.53;;;25.20;;
51304;SDS011;37392;50.964;6.952;2022-11-20T15:28:30;53.88;;;24.52;;
51304;SDS011;37392;50.964;6.952;2022-11-20T15:30:59;59.63;;;26.92;;
51304;SDS011;37392;50.964;6.952;2022-11-20T15:33:27;61.55;;;25.58;;
51304;SDS011;37392;50.964;6.952;2022-11-20T15:35:53;51.90;;;25.58;;
51304;SDS011;37392;50.964;6.952;2022-11-20T15:38:18;52.13;;;24.92;;
51304;SDS011;37392;50.964;6.952;2022-11-20T15:40:47;50.42;;;23.90;;
51304;SDS011;37392;50.964;6.952;2022-11-20T15:43:13;56.60;;;26.67;;
51304;SDS011;37392;50.964;6.952;2022-11-20T15:48:31;64.93;;;28.27;;
51304;SDS011;37392;50.964;6.952;2022-11-20T15:54:18;58.25;;;26.63;;
51304;SDS011;37392;50.964;6.952;2022-11-20T15:56:46;52.85;;;24.55;;
51304;SDS011;37392;50.964;6.952;2022-11-20T15:59:13;60.65;;;29.10;;
51304;SDS011;37392;50.964;6.952;2022-11-20T16:01:41;71.50;;;32.03;;
51304;SDS011;37392;50.964;6.952;2022-11-20T16:04:09;99.85;;;39.60;;
51304;SDS011;37392;50.964;6.952;2022-11-20T16:06:37;65.15;;;31.15;;
51304;SDS011;37392;50.964;6.952;2022-11-20T16:09:03;53.60;;;25.77;;
51304;SDS011;37392;50.964;6.952;2022-11-20T16:11:30;57.38;;;24.02;;
51304;SDS011;37392;50.964;6.952;2022-11-20T16:13:55;51.08;;;24.13;;
51304;SDS011;37392;50.964;6.952;2022-11-20T16:16:39;81.65;;;36.58;;
51304;SDS011;37392;50.964;6.952;2022-11-20T16:19:09;97.20;;;43.35;;
51304;SDS011;37392;50.964;6.952;2022-11-20T16:21:36;71.63;;;30.92;;
51304;SDS011;37392;50.964;6.952;2022-11-20T16:24:05;52.88;;;23.88;;
51304;SDS011;37392;50.964;6.952;2022-11-20T16:26:32;68.70;;;31.85;;
51304;SDS011;37392;50.964;6.952;2022-11-20T16:28:59;60.88;;;28.30;;
51304;SDS011;37392;50.964;6.952;2022-11-20T16:31:26;98.40;;;38.83;;
51304;SDS011;37392;50.964;6.952;2022-11-20T16:33:52;70.72;;;34.40;;
51304;SDS011;37392;50.964;6.952;2022-11-20T16:36:22;56.30;;;25.70;;
51304;SDS011;37392;50.964;6.952;2022-11-20T16:38:52;68.60;;;28.85;;
51304;SDS011;37392;50.964;6.952;2022-11-20T16:41:20;68.43;;;30.38;;
51304;SDS011;37392;50.964;6.952;2022-11-20T16:46:14;61.85;;;25.63;;
51304;SDS011;37392;50.964;6.952;2022-11-20T16:48:42;59.38;;;23.00;;
51304;SDS011;37392;50.964;6.952;2022-11-20T16:51:08;50.38;;;20.63;;
51304;SDS011;37392;50.964;6.952;2022-11-20T16:53:35;32.53;;;17.10;;
51304;SDS011;37392;50.964;6.952;2022-11-20T16:56:09;75.45;;;30.02;;
51304;SDS011;37392;50.964;6.952;2022-11-20T16:58:41;58.13;;;24.10;;